Indianapolis, IN (46277)

8:30 PM EST on December 27, 2014 (GMT -0500)
North Fountain Square | Change Station
CLOSE
Current Station
Personal Weather Station
Location: Indianapolis, IN
Elevation: 738 ft
Nearby Weather Stations

Elev 738 ft 39.76 °N, 86.14 °W | Updated 3 seconds ago

Overcast
Overcast
41.9 °F
Feels Like 38 °F
N
6.0
Wind Variable Wind from NNW
Gusts 7.4 mph

Today
High -- | Low -- °F
--% Chance of Precip.
Yesterday
High -- | Low -- °F
Precip. -- in
8:04 AM 5:26 PM
Waxing Crescent, 42% visible
Pressure 30.11 in
Visibility 5.0 miles
Clouds Few 900 ft
Mostly Cloudy 1800 ft
Overcast 2500 ft
Windchill 38 °F
Dew Point 40 °F
Humidity 92%
Rainfall 0.07 in
Snow Depth Not available.
UV 0 out of 12
Pollen .10 out of 12
Air Quality Not available.
Flu Activity Not available.
SPECI KIND 280118Z 30014KT 5SM -DZ BR FEW009 BKN018 OVC025 04/02 A3011 RMK AO2 P0000 T00390022

More Conditions Fewer Conditions

Pressure 30.11 in
Visibility 5.0 miles
Clouds Few 900 ft
Mostly Cloudy 1800 ft
Overcast 2500 ft
Windchill 38 °F
Dew Point 40 °F
Humidity 92%
Rainfall 0.07 in
Snow Depth Not available.
UV 0 out of 12
Pollen .10 out of 12
Air Quality Not available.
Flu Activity Not available.
SPECI KIND 280118Z 30014KT 5SM -DZ BR FEW009 BKN018 OVC025 04/02 A3011 RMK AO2 P0000 T00390022

More Conditions Fewer Conditions

10-Day Weather Forecast

Almanac

Astronomy

Dec. 27, 2014 Rise Set
Actual Time
Civil Twilight
Nautical Twilight
Astronomical Twilight
Moon
Length of Visible Light
Length of Day
Tomorrow will be .
, % of the Moon is Illuminated

Today's Extremes

State Highs State Lows

Community

WunderPhotos

Upload Photos

1,781,123 photos uploaded!

WunderBlogs® & News

Nearby

Air Quality

  Air Quality AQ Index Pollutant
Not available.

Snow Depth

Station Depth Elevation

Earthquake Activity

City Distance Mag. Time & Date
Minimum magnitude displayed is 2.5.

Coastal Water Temperatures

Place Temperature

Nearby Weather Stations